FYGA4: White River At Fayetteville, AR

                                SHEF ID:       FYGA4     White River near Fayetteville, A
STATION TYPE: Stream Gauge

PRECIP STAGE RIV-FLOW WTR-TEMP DIS-OXY PH CONDUCT BAT-LOAD
in ft cfs F mg/l su umho/cm volt
Ccp-Rev Ccp-Rev Ccp-Rev Ccp-Rev Ccp-Rev Ccp-Rev Ccp-Rev Ccp-Rev
(America/Chicago)
11/19 00:00 0.00 4.02 1412 59.25 9.18 7.67 118 12.65
11/19 01:00 0.00 4.60 2025 59.13 9.33 7.64 105 12.65
11/19 02:00 0.00 5.55 3032 59.04 9.38 7.62 105 12.57
11/19 03:00 0.00 6.06 3563 58.93 9.46 7.63 104 12.57
11/19 04:00 0.00 6.23 3713 58.84 9.14 7.42 116 12.57
11/19 05:00 0.00 6.24 3722 58.95 9.14 7.40 107 12.49
11/19 06:00 0.00 6.13 3624 59.22 9.37 7.53 100 12.41
11/19 07:00 0.00 5.97 3478 ---- 9.32 7.54 0 12.41
11/19 08:00 0.00 5.80 3293 59.16 9.43 7.51 93 12.41
11/19 09:00 0.00 5.66 3146 59.07 9.49 7.53 90 13.53
11/19 10:00 0.00 5.55 3032 59.31 9.47 7.53 85 13.60
11/19 11:00 0.00 5.47 2951 59.52 9.49 7.52 83 14.32
11/19 12:00 0.00 5.36 2842 59.56 9.49 7.49 80 14.00
11/19 13:00 0.00 5.28 2763 59.74 9.44 7.47 79 13.68
11/19 14:00 0.00 5.20 2686 59.94 9.40 7.47 75 13.68
11/19 15:00 0.00 5.13 2620 59.76 9.42 7.48 74 13.60
11/19 16:00 0.00 5.07 2563 59.50 9.35 7.41 72 13.21
11/19 17:00 0.00 5.03 2526 59.40 9.40 7.47 72 13.05
11/19 18:00 0.00 4.97 2471 59.34 9.45 7.47 71 12.89
11/19 19:00 0.00 4.92 2420 59.23 9.47 7.46 71 12.81
11/19 20:00 0.00 4.87 2355 59.43 9.46 7.45 69 12.81
11/19 21:00 0.00 4.82 2292 59.43 9.44 7.44 71 12.81
11/19 22:00 0.00 4.77 2229 59.32 9.46 7.43 71 12.73
11/19 23:00 0.00 4.75 2205 59.14 9.51 7.42 72 12.73
Data processed at Wed 20Nov2024 05:10 GMT

Parsing this webpage?

Checkout our new Data API! CWMSDataAPI (CDA)

Timeseries IDs (TSIDs)

TSIDs used from left to right in the data table
FAYE.Precip-Inc.Total.1Hour.1Hour.Ccp-Rev
FAYE.Stage.Inst.1Hour.0.Ccp-Rev
FAYE.Flow.Inst.1Hour.0.Ccp-Rev
FAYE.Temp-Water.Inst.1Hour.0.Ccp-Rev
FAYE.Conc-DO.Inst.1Hour.0.Ccp-Rev
FAYE.pH.Inst.1Hour.0.Ccp-Rev
FAYE.Cond-Water.Inst.1Hour.0.Ccp-Rev
FAYE.Volt-Battery Load.Inst.1Hour.0.Ccp-Rev

                            

All information presented herein is the property of the government of the United States of America and may be revised or deleted at any time without prior notice. Dissemination of this information without the expressed written consent of the Public Affairs Office, Tulsa District U.S. Army Corps of Engineers is strictly prohibited. These data are gathered electronically and, as presented, have NOT undergone any form of quality control. These data are NOT guaranteed to be valid or correct.